sensor_id;sensor_type;location;lat;lon;timestamp;P1;durP1;ratioP1;P2;durP2;ratioP2
15312;SDS011;7757;52.626;4.746;2022-12-07T00:01:48;7.90;;;1.50;;
15312;SDS011;7757;52.626;4.746;2022-12-07T00:04:15;5.57;;;1.52;;
15312;SDS011;7757;52.626;4.746;2022-12-07T00:06:44;6.35;;;1.60;;
15312;SDS011;7757;52.626;4.746;2022-12-07T00:09:13;6.93;;;1.58;;
15312;SDS011;7757;52.626;4.746;2022-12-07T00:11:40;5.68;;;1.48;;
15312;SDS011;7757;52.626;4.746;2022-12-07T00:14:09;4.22;;;1.17;;
15312;SDS011;7757;52.626;4.746;2022-12-07T00:16:39;6.20;;;1.48;;
15312;SDS011;7757;52.626;4.746;2022-12-07T00:19:06;5.05;;;1.27;;
15312;SDS011;7757;52.626;4.746;2022-12-07T00:21:33;3.60;;;1.30;;
15312;SDS011;7757;52.626;4.746;2022-12-07T00:24:02;7.82;;;1.60;;
15312;SDS011;7757;52.626;4.746;2022-12-07T00:26:31;6.70;;;1.58;;
15312;SDS011;7757;52.626;4.746;2022-12-07T00:29:02;5.03;;;1.33;;
15312;SDS011;7757;52.626;4.746;2022-12-07T00:31:32;4.72;;;1.30;;
15312;SDS011;7757;52.626;4.746;2022-12-07T00:34:02;5.10;;;1.35;;
15312;SDS011;7757;52.626;4.746;2022-12-07T00:36:28;7.40;;;1.45;;
15312;SDS011;7757;52.626;4.746;2022-12-07T00:38:56;4.53;;;1.20;;
15312;SDS011;7757;52.626;4.746;2022-12-07T00:41:24;4.57;;;1.10;;
15312;SDS011;7757;52.626;4.746;2022-12-07T00:43:52;5.80;;;1.30;;
15312;SDS011;7757;52.626;4.746;2022-12-07T00:46:19;6.18;;;1.27;;
15312;SDS011;7757;52.626;4.746;2022-12-07T00:48:47;6.15;;;1.30;;
15312;SDS011;7757;52.626;4.746;2022-12-07T00:51:17;5.45;;;1.30;;
15312;SDS011;7757;52.626;4.746;2022-12-07T00:53:45;7.82;;;1.50;;
15312;SDS011;7757;52.626;4.746;2022-12-07T00:56:12;5.72;;;1.10;;
15312;SDS011;7757;52.626;4.746;2022-12-07T00:58:41;5.57;;;1.30;;
15312;SDS011;7757;52.626;4.746;2022-12-07T01:01:08;6.50;;;1.35;;
15312;SDS011;7757;52.626;4.746;2022-12-07T01:03:36;5.85;;;1.40;;
15312;SDS011;7757;52.626;4.746;2022-12-07T01:06:03;5.43;;;1.20;;
15312;SDS011;7757;52.626;4.746;2022-12-07T01:08:33;6.72;;;1.15;;
15312;SDS011;7757;52.626;4.746;2022-12-07T01:11:00;4.47;;;1.08;;
15312;SDS011;7757;52.626;4.746;2022-12-07T01:13:28;5.03;;;1.30;;
15312;SDS011;7757;52.626;4.746;2022-12-07T01:15:56;6.38;;;1.30;;
15312;SDS011;7757;52.626;4.746;2022-12-07T01:18:24;7.15;;;1.45;;
15312;SDS011;7757;52.626;4.746;2022-12-07T01:21:01;3.83;;;1.20;;
15312;SDS011;7757;52.626;4.746;2022-12-07T01:23:29;4.47;;;1.17;;
15312;SDS011;7757;52.626;4.746;2022-12-07T01:25:58;5.55;;;1.08;;
15312;SDS011;7757;52.626;4.746;2022-12-07T01:28:26;6.05;;;1.00;;
15312;SDS011;7757;52.626;4.746;2022-12-07T01:30:57;4.60;;;1.00;;
15312;SDS011;7757;52.626;4.746;2022-12-07T01:33:26;5.07;;;1.25;;
15312;SDS011;7757;52.626;4.746;2022-12-07T01:35:54;6.47;;;1.15;;
15312;SDS011;7757;52.626;4.746;2022-12-07T01:38:21;4.72;;;1.05;;
15312;SDS011;7757;52.626;4.746;2022-12-07T01:40:53;8.13;;;1.25;;
15312;SDS011;7757;52.626;4.746;2022-12-07T01:43:21;4.47;;;1.13;;
15312;SDS011;7757;52.626;4.746;2022-12-07T01:45:49;6.72;;;1.10;;
15312;SDS011;7757;52.626;4.746;2022-12-07T01:48:16;5.53;;;1.10;;
15312;SDS011;7757;52.626;4.746;2022-12-07T01:50:47;2.40;;;0.90;;
15312;SDS011;7757;52.626;4.746;2022-12-07T01:53:16;5.78;;;1.50;;
15312;SDS011;7757;52.626;4.746;2022-12-07T01:55:44;2.78;;;0.80;;
15312;SDS011;7757;52.626;4.746;2022-12-07T01:58:13;3.40;;;1.10;;
15312;SDS011;7757;52.626;4.746;2022-12-07T02:00:42;6.57;;;1.23;;
15312;SDS011;7757;52.626;4.746;2022-12-07T02:03:09;4.53;;;0.93;;
15312;SDS011;7757;52.626;4.746;2022-12-07T02:05:41;3.88;;;0.90;;
15312;SDS011;7757;52.626;4.746;2022-12-07T02:08:09;5.60;;;1.30;;
15312;SDS011;7757;52.626;4.746;2022-12-07T02:10:38;3.97;;;1.10;;
15312;SDS011;7757;52.626;4.746;2022-12-07T02:13:05;6.22;;;1.10;;
15312;SDS011;7757;52.626;4.746;2022-12-07T02:15:39;5.53;;;1.13;;
15312;SDS011;7757;52.626;4.746;2022-12-07T02:18:19;2.55;;;1.00;;
15312;SDS011;7757;52.626;4.746;2022-12-07T02:23:25;5.95;;;1.20;;
15312;SDS011;7757;52.626;4.746;2022-12-07T02:26:28;4.20;;;0.82;;
15312;SDS011;7757;52.626;4.746;2022-12-07T02:29:23;4.43;;;1.00;;
15312;SDS011;7757;52.626;4.746;2022-12-07T02:31:54;4.43;;;0.85;;
15312;SDS011;7757;52.626;4.746;2022-12-07T02:34:28;3.53;;;0.90;;
15312;SDS011;7757;52.626;4.746;2022-12-07T02:37:02;4.95;;;0.90;;
15312;SDS011;7757;52.626;4.746;2022-12-07T02:39:37;4.95;;;0.90;;
15312;SDS011;7757;52.626;4.746;2022-12-07T02:42:10;5.47;;;1.02;;
15312;SDS011;7757;52.626;4.746;2022-12-07T02:44:42;5.15;;;1.20;;
15312;SDS011;7757;52.626;4.746;2022-12-07T02:47:11;3.05;;;0.75;;
15312;SDS011;7757;52.626;4.746;2022-12-07T02:49:43;6.55;;;1.15;;
15312;SDS011;7757;52.626;4.746;2022-12-07T02:52:11;5.88;;;1.35;;
15312;SDS011;7757;52.626;4.746;2022-12-07T02:54:37;4.85;;;1.00;;
15312;SDS011;7757;52.626;4.746;2022-12-07T02:57:07;6.60;;;1.33;;
15312;SDS011;7757;52.626;4.746;2022-12-07T02:59:55;5.45;;;0.90;;
15312;SDS011;7757;52.626;4.746;2022-12-07T03:02:30;4.78;;;1.00;;
15312;SDS011;7757;52.626;4.746;2022-12-07T03:05:13;5.25;;;0.95;;
15312;SDS011;7757;52.626;4.746;2022-12-07T03:07:50;3.25;;;0.88;;
15312;SDS011;7757;52.626;4.746;2022-12-07T03:10:22;3.70;;;0.85;;
15312;SDS011;7757;52.626;4.746;2022-12-07T03:12:57;5.88;;;0.90;;
15312;SDS011;7757;52.626;4.746;2022-12-07T03:15:33;5.68;;;1.02;;
15312;SDS011;7757;52.626;4.746;2022-12-07T03:18:06;4.88;;;0.70;;
15312;SDS011;7757;52.626;4.746;2022-12-07T03:20:35;3.47;;;0.70;;
15312;SDS011;7757;52.626;4.746;2022-12-07T03:23:04;6.70;;;1.08;;
15312;SDS011;7757;52.626;4.746;2022-12-07T03:25:34;5.00;;;1.02;;
15312;SDS011;7757;52.626;4.746;2022-12-07T03:28:05;5.07;;;0.90;;
15312;SDS011;7757;52.626;4.746;2022-12-07T03:30:37;4.07;;;0.80;;
15312;SDS011;7757;52.626;4.746;2022-12-07T03:33:09;4.78;;;0.95;;
15312;SDS011;7757;52.626;4.746;2022-12-07T03:35:40;4.40;;;1.02;;
15312;SDS011;7757;52.626;4.746;2022-12-07T03:38:12;5.97;;;0.98;;
15312;SDS011;7757;52.626;4.746;2022-12-07T03:43:14;3.13;;;1.08;;
15312;SDS011;7757;52.626;4.746;2022-12-07T03:45:44;3.65;;;0.82;;
15312;SDS011;7757;52.626;4.746;2022-12-07T03:48:23;5.78;;;1.00;;
15312;SDS011;7757;52.626;4.746;2022-12-07T03:50:55;4.63;;;0.80;;
15312;SDS011;7757;52.626;4.746;2022-12-07T03:53:29;3.97;;;0.77;;
15312;SDS011;7757;52.626;4.746;2022-12-07T03:56:03;2.85;;;0.73;;
15312;SDS011;7757;52.626;4.746;2022-12-07T03:58:30;5.18;;;0.70;;
15312;SDS011;7757;52.626;4.746;2022-12-07T04:01:00;3.17;;;0.80;;
15312;SDS011;7757;52.626;4.746;2022-12-07T04:03:27;4.35;;;0.70;;
15312;SDS011;7757;52.626;4.746;2022-12-07T04:05:53;7.03;;;1.10;;
15312;SDS011;7757;52.626;4.746;2022-12-07T04:08:20;5.22;;;1.00;;
15312;SDS011;7757;52.626;4.746;2022-12-07T04:10:47;5.90;;;0.90;;
15312;SDS011;7757;52.626;4.746;2022-12-07T04:13:13;2.58;;;0.88;;
15312;SDS011;7757;52.626;4.746;2022-12-07T04:15:40;3.67;;;0.70;;
15312;SDS011;7757;52.626;4.746;2022-12-07T04:18:08;5.03;;;0.98;;
15312;SDS011;7757;52.626;4.746;2022-12-07T04:20:34;4.30;;;1.00;;
15312;SDS011;7757;52.626;4.746;2022-12-07T04:23:01;4.93;;;0.75;;
15312;SDS011;7757;52.626;4.746;2022-12-07T04:25:27;2.78;;;0.57;;
15312;SDS011;7757;52.626;4.746;2022-12-07T04:27:54;7.20;;;1.17;;
15312;SDS011;7757;52.626;4.746;2022-12-07T04:30:21;3.85;;;0.80;;
15312;SDS011;7757;52.626;4.746;2022-12-07T04:32:47;5.95;;;0.63;;
15312;SDS011;7757;52.626;4.746;2022-12-07T04:35:15;7.15;;;1.27;;
15312;SDS011;7757;52.626;4.746;2022-12-07T04:37:42;4.90;;;0.80;;
15312;SDS011;7757;52.626;4.746;2022-12-07T04:40:09;3.20;;;0.77;;
15312;SDS011;7757;52.626;4.746;2022-12-07T04:42:37;3.05;;;0.70;;
15312;SDS011;7757;52.626;4.746;2022-12-07T04:45:04;5.25;;;0.93;;
15312;SDS011;7757;52.626;4.746;2022-12-07T04:47:32;3.25;;;0.75;;
15312;SDS011;7757;52.626;4.746;2022-12-07T04:49:59;3.95;;;1.05;;
15312;SDS011;7757;52.626;4.746;2022-12-07T04:52:27;4.15;;;0.95;;
15312;SDS011;7757;52.626;4.746;2022-12-07T04:54:53;4.40;;;0.88;;
15312;SDS011;7757;52.626;4.746;2022-12-07T04:57:20;4.63;;;1.00;;
15312;SDS011;7757;52.626;4.746;2022-12-07T04:59:46;3.63;;;1.00;;
15312;SDS011;7757;52.626;4.746;2022-12-07T05:02:13;4.07;;;0.70;;
15312;SDS011;7757;52.626;4.746;2022-12-07T05:04:40;5.25;;;0.68;;
15312;SDS011;7757;52.626;4.746;2022-12-07T05:07:06;5.15;;;0.93;;
15312;SDS011;7757;52.626;4.746;2022-12-07T05:09:34;6.43;;;0.70;;
15312;SDS011;7757;52.626;4.746;2022-12-07T05:12:01;3.25;;;0.90;;
15312;SDS011;7757;52.626;4.746;2022-12-07T05:14:27;5.88;;;0.90;;
15312;SDS011;7757;52.626;4.746;2022-12-07T05:16:54;3.38;;;0.93;;
15312;SDS011;7757;52.626;4.746;2022-12-07T05:19:20;7.57;;;1.00;;
15312;SDS011;7757;52.626;4.746;2022-12-07T05:21:47;4.68;;;0.90;;
15312;SDS011;7757;52.626;4.746;2022-12-07T05:24:14;7.03;;;1.00;;
15312;SDS011;7757;52.626;4.746;2022-12-07T05:26:43;6.93;;;0.85;;
15312;SDS011;7757;52.626;4.746;2022-12-07T05:29:11;4.18;;;0.95;;
15312;SDS011;7757;52.626;4.746;2022-12-07T05:31:38;4.90;;;1.40;;
15312;SDS011;7757;52.626;4.746;2022-12-07T05:34:05;5.68;;;0.90;;
15312;SDS011;7757;52.626;4.746;2022-12-07T05:36:32;4.55;;;0.75;;
15312;SDS011;7757;52.626;4.746;2022-12-07T05:38:58;2.85;;;0.52;;
15312;SDS011;7757;52.626;4.746;2022-12-07T05:41:25;4.72;;;0.73;;
15312;SDS011;7757;52.626;4.746;2022-12-07T05:44:11;3.88;;;0.70;;
15312;SDS011;7757;52.626;4.746;2022-12-07T05:46:37;2.58;;;0.77;;
15312;SDS011;7757;52.626;4.746;2022-12-07T05:49:04;4.65;;;0.90;;
15312;SDS011;7757;52.626;4.746;2022-12-07T05:51:30;3.03;;;0.80;;
15312;SDS011;7757;52.626;4.746;2022-12-07T05:53:57;4.82;;;0.90;;
15312;SDS011;7757;52.626;4.746;2022-12-07T05:56:24;4.03;;;0.88;;
15312;SDS011;7757;52.626;4.746;2022-12-07T05:58:51;5.50;;;1.00;;
15312;SDS011;7757;52.626;4.746;2022-12-07T06:01:37;4.17;;;0.80;;
15312;SDS011;7757;52.626;4.746;2022-12-07T06:04:03;4.13;;;0.77;;
15312;SDS011;7757;52.626;4.746;2022-12-07T06:06:30;5.13;;;0.93;;
15312;SDS011;7757;52.626;4.746;2022-12-07T06:08:57;3.63;;;0.70;;
15312;SDS011;7757;52.626;4.746;2022-12-07T06:11:23;5.95;;;0.82;;
15312;SDS011;7757;52.626;4.746;2022-12-07T06:14:07;3.10;;;0.60;;
15312;SDS011;7757;52.626;4.746;2022-12-07T06:16:34;2.33;;;0.60;;
15312;SDS011;7757;52.626;4.746;2022-12-07T06:19:02;2.72;;;0.60;;
15312;SDS011;7757;52.626;4.746;2022-12-07T06:21:28;1.33;;;0.50;;
15312;SDS011;7757;52.626;4.746;2022-12-07T06:23:55;1.98;;;0.47;;
15312;SDS011;7757;52.626;4.746;2022-12-07T06:26:22;4.70;;;0.82;;
15312;SDS011;7757;52.626;4.746;2022-12-07T06:28:48;5.07;;;0.80;;
15312;SDS011;7757;52.626;4.746;2022-12-07T06:31:18;4.65;;;0.70;;
15312;SDS011;7757;52.626;4.746;2022-12-07T06:33:45;2.58;;;0.63;;
15312;SDS011;7757;52.626;4.746;2022-12-07T06:36:13;3.10;;;0.80;;
15312;SDS011;7757;52.626;4.746;2022-12-07T06:38:40;1.35;;;0.40;;
15312;SDS011;7757;52.626;4.746;2022-12-07T06:41:06;3.47;;;0.77;;
15312;SDS011;7757;52.626;4.746;2022-12-07T06:43:33;5.78;;;0.88;;
15312;SDS011;7757;52.626;4.746;2022-12-07T06:46:00;6.82;;;0.80;;
15312;SDS011;7757;52.626;4.746;2022-12-07T06:48:26;4.82;;;0.90;;
15312;SDS011;7757;52.626;4.746;2022-12-07T06:50:53;3.13;;;0.70;;
15312;SDS011;7757;52.626;4.746;2022-12-07T06:53:21;2.45;;;0.70;;
15312;SDS011;7757;52.626;4.746;2022-12-07T06:55:47;3.67;;;0.70;;
15312;SDS011;7757;52.626;4.746;2022-12-07T06:58:14;3.00;;;0.65;;
15312;SDS011;7757;52.626;4.746;2022-12-07T07:00:41;3.47;;;0.68;;
15312;SDS011;7757;52.626;4.746;2022-12-07T07:03:08;5.95;;;1.20;;
15312;SDS011;7757;52.626;4.746;2022-12-07T07:05:34;2.35;;;0.73;;
15312;SDS011;7757;52.626;4.746;2022-12-07T07:08:01;3.88;;;0.85;;
15312;SDS011;7757;52.626;4.746;2022-12-07T07:10:31;3.15;;;0.80;;
15312;SDS011;7757;52.626;4.746;2022-12-07T07:12:58;1.33;;;0.40;;
15312;SDS011;7757;52.626;4.746;2022-12-07T07:15:25;4.85;;;0.68;;
15312;SDS011;7757;52.626;4.746;2022-12-07T07:17:51;2.22;;;0.70;;
15312;SDS011;7757;52.626;4.746;2022-12-07T07:20:18;4.45;;;0.68;;
15312;SDS011;7757;52.626;4.746;2022-12-07T07:22:45;3.75;;;0.82;;
15312;SDS011;7757;52.626;4.746;2022-12-07T07:25:11;2.83;;;0.80;;
15312;SDS011;7757;52.626;4.746;2022-12-07T07:27:39;3.90;;;0.80;;
15312;SDS011;7757;52.626;4.746;2022-12-07T07:30:06;7.60;;;1.10;;
15312;SDS011;7757;52.626;4.746;2022-12-07T07:32:34;6.18;;;1.10;;
15312;SDS011;7757;52.626;4.746;2022-12-07T07:35:00;8.82;;;1.20;;
15312;SDS011;7757;52.626;4.746;2022-12-07T07:37:27;10.48;;;1.27;;
15312;SDS011;7757;52.626;4.746;2022-12-07T07:39:54;8.93;;;1.33;;
15312;SDS011;7757;52.626;4.746;2022-12-07T07:42:20;6.22;;;1.40;;
15312;SDS011;7757;52.626;4.746;2022-12-07T07:44:49;9.20;;;1.20;;
15312;SDS011;7757;52.626;4.746;2022-12-07T07:47:15;6.43;;;1.00;;
15312;SDS011;7757;52.626;4.746;2022-12-07T07:49:42;6.72;;;1.40;;
15312;SDS011;7757;52.626;4.746;2022-12-07T07:52:09;4.63;;;0.80;;
15312;SDS011;7757;52.626;4.746;2022-12-07T07:54:36;6.50;;;1.15;;
15312;SDS011;7757;52.626;4.746;2022-12-07T07:57:02;5.72;;;1.20;;
15312;SDS011;7757;52.626;4.746;2022-12-07T07:59:29;7.00;;;1.30;;
15312;SDS011;7757;52.626;4.746;2022-12-07T08:01:57;4.85;;;1.10;;
15312;SDS011;7757;52.626;4.746;2022-12-07T08:04:23;9.15;;;1.23;;
15312;SDS011;7757;52.626;4.746;2022-12-07T08:06:51;9.38;;;1.15;;
15312;SDS011;7757;52.626;4.746;2022-12-07T08:09:17;8.82;;;1.10;;
15312;SDS011;7757;52.626;4.746;2022-12-07T08:11:44;6.03;;;0.95;;
15312;SDS011;7757;52.626;4.746;2022-12-07T08:14:11;4.72;;;0.93;;
15312;SDS011;7757;52.626;4.746;2022-12-07T08:16:38;3.83;;;0.80;;
15312;SDS011;7757;52.626;4.746;2022-12-07T08:19:06;2.88;;;0.90;;
15312;SDS011;7757;52.626;4.746;2022-12-07T08:21:33;3.67;;;0.90;;
15312;SDS011;7757;52.626;4.746;2022-12-07T08:23:59;5.30;;;0.90;;
15312;SDS011;7757;52.626;4.746;2022-12-07T08:26:26;6.05;;;1.40;;
15312;SDS011;7757;52.626;4.746;2022-12-07T08:28:53;3.83;;;0.82;;
15312;SDS011;7757;52.626;4.746;2022-12-07T08:31:19;5.55;;;1.42;;
15312;SDS011;7757;52.626;4.746;2022-12-07T08:33:46;3.83;;;0.80;;
15312;SDS011;7757;52.626;4.746;2022-12-07T08:36:15;4.85;;;1.00;;
15312;SDS011;7757;52.626;4.746;2022-12-07T08:38:42;4.55;;;1.00;;
15312;SDS011;7757;52.626;4.746;2022-12-07T08:41:09;3.97;;;0.90;;
15312;SDS011;7757;52.626;4.746;2022-12-07T08:43:35;3.70;;;0.90;;
15312;SDS011;7757;52.626;4.746;2022-12-07T08:46:04;5.68;;;1.02;;
15312;SDS011;7757;52.626;4.746;2022-12-07T08:48:35;3.30;;;0.82;;
15312;SDS011;7757;52.626;4.746;2022-12-07T08:51:05;3.47;;;0.82;;
15312;SDS011;7757;52.626;4.746;2022-12-07T08:53:32;3.90;;;0.80;;
15312;SDS011;7757;52.626;4.746;2022-12-07T08:56:01;5.03;;;0.90;;
15312;SDS011;7757;52.626;4.746;2022-12-07T08:58:28;4.35;;;0.80;;
15312;SDS011;7757;52.626;4.746;2022-12-07T09:00:54;5.10;;;1.08;;
15312;SDS011;7757;52.626;4.746;2022-12-07T09:03:21;4.43;;;1.00;;
15312;SDS011;7757;52.626;4.746;2022-12-07T09:05:47;3.22;;;0.73;;
15312;SDS011;7757;52.626;4.746;2022-12-07T09:08:14;3.47;;;0.77;;
15312;SDS011;7757;52.626;4.746;2022-12-07T09:10:43;4.78;;;0.90;;
15312;SDS011;7757;52.626;4.746;2022-12-07T09:13:09;4.65;;;0.95;;
15312;SDS011;7757;52.626;4.746;2022-12-07T09:15:36;4.40;;;0.77;;
15312;SDS011;7757;52.626;4.746;2022-12-07T09:18:02;4.30;;;0.80;;
15312;SDS011;7757;52.626;4.746;2022-12-07T09:20:29;1.55;;;0.60;;
15312;SDS011;7757;52.626;4.746;2022-12-07T09:22:56;4.53;;;1.00;;
15312;SDS011;7757;52.626;4.746;2022-12-07T09:25:22;4.22;;;0.90;;
15312;SDS011;7757;52.626;4.746;2022-12-07T09:27:55;3.78;;;0.80;;
15312;SDS011;7757;52.626;4.746;2022-12-07T09:30:22;4.15;;;0.90;;
15312;SDS011;7757;52.626;4.746;2022-12-07T09:32:49;4.03;;;0.70;;
15312;SDS011;7757;52.626;4.746;2022-12-07T09:35:15;3.85;;;0.70;;
15312;SDS011;7757;52.626;4.746;2022-12-07T09:37:42;3.00;;;0.90;;
15312;SDS011;7757;52.626;4.746;2022-12-07T09:40:09;3.15;;;0.77;;
15312;SDS011;7757;52.626;4.746;2022-12-07T09:42:37;3.53;;;0.77;;
15312;SDS011;7757;52.626;4.746;2022-12-07T09:45:07;4.22;;;1.00;;
15312;SDS011;7757;52.626;4.746;2022-12-07T09:47:40;2.63;;;0.70;;
15312;SDS011;7757;52.626;4.746;2022-12-07T09:50:10;2.90;;;0.60;;
15312;SDS011;7757;52.626;4.746;2022-12-07T09:52:39;2.30;;;0.63;;
15312;SDS011;7757;52.626;4.746;2022-12-07T09:55:09;4.30;;;1.00;;
15312;SDS011;7757;52.626;4.746;2022-12-07T09:57:38;1.48;;;0.47;;
15312;SDS011;7757;52.626;4.746;2022-12-07T10:00:10;5.32;;;0.80;;
15312;SDS011;7757;52.626;4.746;2022-12-07T10:05:10;2.50;;;0.85;;
15312;SDS011;7757;52.626;4.746;2022-12-07T10:07:40;3.50;;;0.88;;
15312;SDS011;7757;52.626;4.746;2022-12-07T10:10:12;4.88;;;0.80;;
15312;SDS011;7757;52.626;4.746;2022-12-07T10:12:53;2.50;;;0.68;;
15312;SDS011;7757;52.626;4.746;2022-12-07T10:15:23;2.10;;;0.65;;
15312;SDS011;7757;52.626;4.746;2022-12-07T10:17:51;2.83;;;0.85;;
15312;SDS011;7757;52.626;4.746;2022-12-07T10:20:19;3.60;;;0.90;;
15312;SDS011;7757;52.626;4.746;2022-12-07T10:23:00;4.20;;;0.82;;
15312;SDS011;7757;52.626;4.746;2022-12-07T10:25:30;2.17;;;0.55;;
15312;SDS011;7757;52.626;4.746;2022-12-07T10:28:03;3.70;;;1.02;;
15312;SDS011;7757;52.626;4.746;2022-12-07T10:30:53;1.33;;;0.55;;
15312;SDS011;7757;52.626;4.746;2022-12-07T10:33:27;3.65;;;0.70;;
15312;SDS011;7757;52.626;4.746;2022-12-07T10:35:55;2.75;;;0.65;;
15312;SDS011;7757;52.626;4.746;2022-12-07T10:38:22;1.95;;;0.63;;
15312;SDS011;7757;52.626;4.746;2022-12-07T10:40:54;4.30;;;0.98;;
15312;SDS011;7757;52.626;4.746;2022-12-07T10:43:29;2.38;;;0.65;;
15312;SDS011;7757;52.626;4.746;2022-12-07T10:46:09;3.75;;;0.90;;
15312;SDS011;7757;52.626;4.746;2022-12-07T10:48:47;3.60;;;0.70;;
15312;SDS011;7757;52.626;4.746;2022-12-07T10:51:26;2.83;;;0.65;;
15312;SDS011;7757;52.626;4.746;2022-12-07T10:54:01;3.85;;;0.80;;
15312;SDS011;7757;52.626;4.746;2022-12-07T10:56:41;3.08;;;0.80;;
15312;SDS011;7757;52.626;4.746;2022-12-07T10:59:34;2.47;;;0.77;;
15312;SDS011;7757;52.626;4.746;2022-12-07T11:02:18;3.70;;;0.60;;
15312;SDS011;7757;52.626;4.746;2022-12-07T11:04:55;4.22;;;0.63;;
15312;SDS011;7757;52.626;4.746;2022-12-07T11:07:34;2.10;;;0.60;;
15312;SDS011;7757;52.626;4.746;2022-12-07T11:10:10;3.70;;;0.77;;
15312;SDS011;7757;52.626;4.746;2022-12-07T11:12:47;4.13;;;0.90;;
15312;SDS011;7757;52.626;4.746;2022-12-07T11:15:25;4.03;;;0.93;;
15312;SDS011;7757;52.626;4.746;2022-12-07T11:18:01;3.20;;;0.75;;
15312;SDS011;7757;52.626;4.746;2022-12-07T11:20:39;2.60;;;0.65;;
15312;SDS011;7757;52.626;4.746;2022-12-07T11:23:13;3.30;;;0.55;;
15312;SDS011;7757;52.626;4.746;2022-12-07T11:25:49;2.28;;;0.70;;
15312;SDS011;7757;52.626;4.746;2022-12-07T11:28:25;5.15;;;0.88;;
15312;SDS011;7757;52.626;4.746;2022-12-07T11:31:07;4.38;;;1.00;;
15312;SDS011;7757;52.626;4.746;2022-12-07T11:33:43;3.28;;;0.73;;
15312;SDS011;7757;52.626;4.746;2022-12-07T11:36:17;1.75;;;0.55;;
15312;SDS011;7757;52.626;4.746;2022-12-07T11:39:00;2.35;;;0.70;;
15312;SDS011;7757;52.626;4.746;2022-12-07T11:41:31;4.00;;;0.63;;
15312;SDS011;7757;52.626;4.746;2022-12-07T11:44:02;2.20;;;0.60;;
15312;SDS011;7757;52.626;4.746;2022-12-07T11:46:36;3.67;;;0.80;;
15312;SDS011;7757;52.626;4.746;2022-12-07T11:49:14;3.20;;;0.70;;
15312;SDS011;7757;52.626;4.746;2022-12-07T11:51:47;4.03;;;0.90;;
15312;SDS011;7757;52.626;4.746;2022-12-07T11:54:18;2.97;;;0.60;;
15312;SDS011;7757;52.626;4.746;2022-12-07T11:56:48;5.38;;;0.90;;
15312;SDS011;7757;52.626;4.746;2022-12-07T11:59:17;9.38;;;1.30;;
15312;SDS011;7757;52.626;4.746;2022-12-07T12:01:51;9.25;;;1.98;;
15312;SDS011;7757;52.626;4.746;2022-12-07T12:04:30;8.63;;;1.60;;
15312;SDS011;7757;52.626;4.746;2022-12-07T12:07:06;11.50;;;1.60;;
15312;SDS011;7757;52.626;4.746;2022-12-07T12:09:34;11.88;;;2.10;;
15312;SDS011;7757;52.626;4.746;2022-12-07T12:12:20;14.02;;;1.88;;
15312;SDS011;7757;52.626;4.746;2022-12-07T12:15:16;9.32;;;1.50;;
15312;SDS011;7757;52.626;4.746;2022-12-07T12:21:02;9.68;;;1.60;;
15312;SDS011;7757;52.626;4.746;2022-12-07T12:23:35;10.85;;;1.48;;
15312;SDS011;7757;52.626;4.746;2022-12-07T12:26:07;12.73;;;1.77;;
15312;SDS011;7757;52.626;4.746;2022-12-07T12:28:48;12.52;;;1.80;;
15312;SDS011;7757;52.626;4.746;2022-12-07T12:31:29;10.60;;;1.80;;
15312;SDS011;7757;52.626;4.746;2022-12-07T12:34:00;6.95;;;1.27;;
15312;SDS011;7757;52.626;4.746;2022-12-07T12:36:44;10.75;;;1.48;;
15312;SDS011;7757;52.626;4.746;2022-12-07T12:39:12;10.77;;;1.50;;
15312;SDS011;7757;52.626;4.746;2022-12-07T12:41:53;7.70;;;1.27;;
15312;SDS011;7757;52.626;4.746;2022-12-07T12:47:40;11.02;;;1.45;;
15312;SDS011;7757;52.626;4.746;2022-12-07T12:50:15;8.02;;;1.35;;
15312;SDS011;7757;52.626;4.746;2022-12-07T12:52:55;7.40;;;1.20;;
15312;SDS011;7757;52.626;4.746;2022-12-07T12:58:35;7.82;;;1.35;;
15312;SDS011;7757;52.626;4.746;2022-12-07T13:04:24;9.77;;;1.45;;
15312;SDS011;7757;52.626;4.746;2022-12-07T13:06:56;4.97;;;1.15;;
15312;SDS011;7757;52.626;4.746;2022-12-07T13:09:25;7.18;;;1.30;;
15312;SDS011;7757;52.626;4.746;2022-12-07T13:11:55;6.15;;;1.40;;
15312;SDS011;7757;52.626;4.746;2022-12-07T13:14:43;7.82;;;1.20;;
15312;SDS011;7757;52.626;4.746;2022-12-07T13:23:25;6.93;;;1.30;;
15312;SDS011;7757;52.626;4.746;2022-12-07T13:26:12;6.50;;;1.20;;
15312;SDS011;7757;52.626;4.746;2022-12-07T13:28:42;7.78;;;1.23;;
15312;SDS011;7757;52.626;4.746;2022-12-07T13:31:14;6.60;;;1.40;;
15312;SDS011;7757;52.626;4.746;2022-12-07T13:33:47;6.10;;;1.20;;
15312;SDS011;7757;52.626;4.746;2022-12-07T13:36:16;5.85;;;1.40;;
15312;SDS011;7757;52.626;4.746;2022-12-07T13:38:54;7.75;;;1.20;;
15312;SDS011;7757;52.626;4.746;2022-12-07T13:41:24;6.40;;;1.15;;
15312;SDS011;7757;52.626;4.746;2022-12-07T13:43:53;5.97;;;1.27;;
15312;SDS011;7757;52.626;4.746;2022-12-07T13:46:29;5.80;;;1.00;;
15312;SDS011;7757;52.626;4.746;2022-12-07T13:49:02;6.07;;;1.20;;
15312;SDS011;7757;52.626;4.746;2022-12-07T13:51:29;5.40;;;1.30;;
15312;SDS011;7757;52.626;4.746;2022-12-07T13:54:07;5.38;;;1.17;;
15312;SDS011;7757;52.626;4.746;2022-12-07T13:56:38;5.75;;;1.25;;
15312;SDS011;7757;52.626;4.746;2022-12-07T13:59:07;5.50;;;1.05;;
15312;SDS011;7757;52.626;4.746;2022-12-07T14:04:24;6.45;;;1.20;;
15312;SDS011;7757;52.626;4.746;2022-12-07T14:06:56;5.10;;;1.00;;
15312;SDS011;7757;52.626;4.746;2022-12-07T14:09:25;6.47;;;1.00;;
15312;SDS011;7757;52.626;4.746;2022-12-07T14:11:55;6.43;;;1.10;;
15312;SDS011;7757;52.626;4.746;2022-12-07T14:14:24;6.53;;;1.42;;
15312;SDS011;7757;52.626;4.746;2022-12-07T14:16:55;4.40;;;1.20;;
15312;SDS011;7757;52.626;4.746;2022-12-07T14:19:41;6.35;;;1.15;;
15312;SDS011;7757;52.626;4.746;2022-12-07T14:22:17;4.57;;;1.10;;
15312;SDS011;7757;52.626;4.746;2022-12-07T14:27:49;3.83;;;0.73;;
15312;SDS011;7757;52.626;4.746;2022-12-07T14:30:20;6.32;;;1.30;;
15312;SDS011;7757;52.626;4.746;2022-12-07T14:32:48;4.65;;;0.82;;
15312;SDS011;7757;52.626;4.746;2022-12-07T14:35:18;4.82;;;1.00;;
15312;SDS011;7757;52.626;4.746;2022-12-07T14:37:47;3.85;;;0.88;;
15312;SDS011;7757;52.626;4.746;2022-12-07T14:40:15;6.18;;;1.00;;
15312;SDS011;7757;52.626;4.746;2022-12-07T14:42:44;3.70;;;0.93;;
15312;SDS011;7757;52.626;4.746;2022-12-07T14:45:14;6.55;;;1.08;;
15312;SDS011;7757;52.626;4.746;2022-12-07T14:47:42;4.97;;;1.02;;
15312;SDS011;7757;52.626;4.746;2022-12-07T14:50:11;6.07;;;0.93;;
15312;SDS011;7757;52.626;4.746;2022-12-07T14:52:39;5.38;;;0.95;;
15312;SDS011;7757;52.626;4.746;2022-12-07T14:55:08;3.92;;;0.70;;
15312;SDS011;7757;52.626;4.746;2022-12-07T14:57:40;3.28;;;0.80;;
15312;SDS011;7757;52.626;4.746;2022-12-07T15:00:08;6.43;;;1.10;;
15312;SDS011;7757;52.626;4.746;2022-12-07T15:02:40;3.33;;;0.80;;
15312;SDS011;7757;52.626;4.746;2022-12-07T15:05:07;5.20;;;1.02;;
15312;SDS011;7757;52.626;4.746;2022-12-07T15:07:34;5.75;;;0.90;;
15312;SDS011;7757;52.626;4.746;2022-12-07T15:10:01;3.72;;;1.00;;
15312;SDS011;7757;52.626;4.746;2022-12-07T15:12:27;5.80;;;1.17;;
15312;SDS011;7757;52.626;4.746;2022-12-07T15:14:54;5.53;;;1.35;;
15312;SDS011;7757;52.626;4.746;2022-12-07T15:17:20;3.60;;;0.80;;
15312;SDS011;7757;52.626;4.746;2022-12-07T15:19:48;6.63;;;1.05;;
15312;SDS011;7757;52.626;4.746;2022-12-07T15:22:15;6.78;;;1.00;;
15312;SDS011;7757;52.626;4.746;2022-12-07T15:24:41;5.32;;;0.80;;
15312;SDS011;7757;52.626;4.746;2022-12-07T15:27:08;5.78;;;1.20;;
15312;SDS011;7757;52.626;4.746;2022-12-07T15:29:35;3.80;;;0.98;;
15312;SDS011;7757;52.626;4.746;2022-12-07T15:32:01;5.55;;;1.05;;
15312;SDS011;7757;52.626;4.746;2022-12-07T15:34:28;8.65;;;1.13;;
15312;SDS011;7757;52.626;4.746;2022-12-07T15:36:57;6.57;;;1.08;;
15312;SDS011;7757;52.626;4.746;2022-12-07T15:39:23;6.00;;;1.00;;
15312;SDS011;7757;52.626;4.746;2022-12-07T15:41:50;3.15;;;0.60;;
15312;SDS011;7757;52.626;4.746;2022-12-07T15:44:17;3.33;;;0.60;;
15312;SDS011;7757;52.626;4.746;2022-12-07T15:47:01;4.00;;;0.93;;
15312;SDS011;7757;52.626;4.746;2022-12-07T15:49:27;4.63;;;0.80;;
15312;SDS011;7757;52.626;4.746;2022-12-07T15:51:54;2.97;;;0.55;;